Hatton, ND

11:34 AM CST on March 02, 2015 (GMT -0600)
Larimore | Change Station
CLOSE
Current Station
Personal Weather Station
Location: Larimore, ND
Elevation: 1125 ft
Nearby Weather Stations

Elev 1125 ft 47.91 °N, 97.63 °W | Updated 3 minutes ago

Clear
Clear
27.0 °F
Feels Like 18 °F
N
8.9
Wind Variable Wind from SW

Today
High -- | Low -- °F
--% Chance of Precip.
Yesterday
High -- | Low -- °F
Precip. -- in
7:08 AM 6:15 PM
Waxing Gibbous, 92% visible
Pressure 30.29 in
Visibility 10.0 miles
Clouds Clear
Windchill 18 °F
Dew Point 13 °F
Humidity 56%
Rainfall 0.00 in
Snow Depth Not available.
UV 3 out of 12
Pollen .10 out of 12
Air Quality Not available.
Flu Activity Not available.
METAR KRDR 021658Z AUTO 19014G18KT 10SM CLR M04/M12 A3022 RMK AO2 SLP257 T10401124

More Conditions Fewer Conditions

Pressure 30.29 in
Visibility 10.0 miles
Clouds Clear
Windchill 18 °F
Dew Point 13 °F
Humidity 56%
Rainfall 0.00 in
Snow Depth Not available.
UV 3 out of 12
Pollen .10 out of 12
Air Quality Not available.
Flu Activity Not available.
METAR KRDR 021658Z AUTO 19014G18KT 10SM CLR M04/M12 A3022 RMK AO2 SLP257 T10401124

More Conditions Fewer Conditions

10-Day Weather Forecast

Almanac

Astronomy

Mar. 02, 2015 Rise Set
Actual Time
Civil Twilight
Nautical Twilight
Astronomical Twilight
Moon
Length of Visible Light
Length of Day
Tomorrow will be .
, % of the Moon is Illuminated

Today's Extremes

State Highs State Lows

Community

WunderPhotos

Upload Photos

1,801,877 photos uploaded!

WunderBlogs® & News

Nearby

Air Quality

  Air Quality AQ Index Pollutant
Not available.

Snow Depth

Station Depth Elevation

Earthquake Activity

City Distance Mag. Time & Date
Minimum magnitude displayed is 2.5.

Coastal Water Temperatures

Place Temperature

Nearby Weather Stations